sensor_id;sensor_type;location;lat;lon;timestamp;P1;durP1;ratioP1;P2;durP2;ratioP2
81318;SDS011;70784;48.420;14.830;2023-07-30T00:02:08;3.05;;;1.27;;
81318;SDS011;70784;48.420;14.830;2023-07-30T00:07:37;2.58;;;1.30;;
81318;SDS011;70784;48.420;14.830;2023-07-30T00:10:21;3.25;;;1.23;;
81318;SDS011;70784;48.420;14.830;2023-07-30T00:13:05;2.45;;;1.20;;
81318;SDS011;70784;48.420;14.830;2023-07-30T00:18:34;2.03;;;1.25;;
81318;SDS011;70784;48.420;14.830;2023-07-30T00:21:18;3.78;;;1.10;;
81318;SDS011;70784;48.420;14.830;2023-07-30T00:26:47;2.63;;;1.10;;
81318;SDS011;70784;48.420;14.830;2023-07-30T00:29:31;2.03;;;1.02;;
81318;SDS011;70784;48.420;14.830;2023-07-30T00:32:15;2.30;;;1.75;;
81318;SDS011;70784;48.420;14.830;2023-07-30T00:35:00;2.30;;;1.20;;
81318;SDS011;70784;48.420;14.830;2023-07-30T00:37:44;1.30;;;0.93;;
81318;SDS011;70784;48.420;14.830;2023-07-30T00:40:29;1.95;;;1.33;;
81318;SDS011;70784;48.420;14.830;2023-07-30T00:43:13;1.67;;;1.23;;
81318;SDS011;70784;48.420;14.830;2023-07-30T00:45:57;1.83;;;1.08;;
81318;SDS011;70784;48.420;14.830;2023-07-30T00:48:41;2.70;;;1.08;;
81318;SDS011;70784;48.420;14.830;2023-07-30T00:51:26;3.92;;;1.45;;
81318;SDS011;70784;48.420;14.830;2023-07-30T00:54:11;3.10;;;1.40;;
81318;SDS011;70784;48.420;14.830;2023-07-30T00:56:55;4.07;;;1.10;;
81318;SDS011;70784;48.420;14.830;2023-07-30T00:59:40;2.65;;;1.23;;
81318;SDS011;70784;48.420;14.830;2023-07-30T01:02:24;1.50;;;0.93;;
81318;SDS011;70784;48.420;14.830;2023-07-30T01:05:08;1.60;;;1.25;;
81318;SDS011;70784;48.420;14.830;2023-07-30T01:07:53;1.80;;;0.90;;
81318;SDS011;70784;48.420;14.830;2023-07-30T01:10:37;1.52;;;1.00;;
81318;SDS011;70784;48.420;14.830;2023-07-30T01:13:23;1.88;;;1.20;;
81318;SDS011;70784;48.420;14.830;2023-07-30T01:16:08;1.70;;;1.20;;
81318;SDS011;70784;48.420;14.830;2023-07-30T01:18:53;1.60;;;1.25;;
81318;SDS011;70784;48.420;14.830;2023-07-30T01:21:37;2.47;;;1.40;;
81318;SDS011;70784;48.420;14.830;2023-07-30T01:24:21;2.38;;;1.25;;
81318;SDS011;70784;48.420;14.830;2023-07-30T01:27:07;4.28;;;1.33;;
81318;SDS011;70784;48.420;14.830;2023-07-30T01:29:52;1.85;;;1.10;;
81318;SDS011;70784;48.420;14.830;2023-07-30T01:32:40;2.15;;;1.35;;
81318;SDS011;70784;48.420;14.830;2023-07-30T01:35:26;1.98;;;1.05;;
81318;SDS011;70784;48.420;14.830;2023-07-30T01:38:10;1.80;;;1.10;;
81318;SDS011;70784;48.420;14.830;2023-07-30T01:40:55;2.33;;;1.38;;
81318;SDS011;70784;48.420;14.830;2023-07-30T01:43:39;2.28;;;1.30;;
81318;SDS011;70784;48.420;14.830;2023-07-30T01:46:24;1.90;;;1.20;;
81318;SDS011;70784;48.420;14.830;2023-07-30T01:51:52;1.63;;;1.13;;
81318;SDS011;70784;48.420;14.830;2023-07-30T01:54:36;3.85;;;1.15;;
81318;SDS011;70784;48.420;14.830;2023-07-30T01:57:21;2.78;;;1.40;;
81318;SDS011;70784;48.420;14.830;2023-07-30T02:02:50;2.58;;;1.40;;
81318;SDS011;70784;48.420;14.830;2023-07-30T02:05:35;1.55;;;1.00;;
81318;SDS011;70784;48.420;14.830;2023-07-30T02:08:21;1.50;;;1.00;;
81318;SDS011;70784;48.420;14.830;2023-07-30T02:11:07;1.67;;;1.10;;
81318;SDS011;70784;48.420;14.830;2023-07-30T02:13:53;2.25;;;1.40;;
81318;SDS011;70784;48.420;14.830;2023-07-30T02:16:41;3.22;;;1.40;;
81318;SDS011;70784;48.420;14.830;2023-07-30T02:19:29;2.25;;;1.40;;
81318;SDS011;70784;48.420;14.830;2023-07-30T02:22:15;2.33;;;1.45;;
81318;SDS011;70784;48.420;14.830;2023-07-30T02:25:00;2.13;;;1.33;;
81318;SDS011;70784;48.420;14.830;2023-07-30T02:27:46;3.67;;;2.25;;
81318;SDS011;70784;48.420;14.830;2023-07-30T02:30:33;1.60;;;1.10;;
81318;SDS011;70784;48.420;14.830;2023-07-30T02:33:19;4.75;;;1.50;;
81318;SDS011;70784;48.420;14.830;2023-07-30T02:36:04;1.95;;;0.88;;
81318;SDS011;70784;48.420;14.830;2023-07-30T02:38:50;2.75;;;1.42;;
81318;SDS011;70784;48.420;14.830;2023-07-30T02:41:36;2.08;;;1.40;;
81318;SDS011;70784;48.420;14.830;2023-07-30T02:44:21;2.47;;;1.13;;
81318;SDS011;70784;48.420;14.830;2023-07-30T02:47:07;2.47;;;1.50;;
81318;SDS011;70784;48.420;14.830;2023-07-30T02:49:53;1.92;;;1.15;;
81318;SDS011;70784;48.420;14.830;2023-07-30T02:52:38;3.17;;;1.35;;
81318;SDS011;70784;48.420;14.830;2023-07-30T02:55:24;3.15;;;1.33;;
81318;SDS011;70784;48.420;14.830;2023-07-30T02:58:10;2.30;;;1.52;;
81318;SDS011;70784;48.420;14.830;2023-07-30T03:01:04;3.25;;;1.48;;
81318;SDS011;70784;48.420;14.830;2023-07-30T03:03:50;2.08;;;1.05;;
81318;SDS011;70784;48.420;14.830;2023-07-30T03:06:39;2.33;;;1.40;;
81318;SDS011;70784;48.420;14.830;2023-07-30T03:09:25;2.83;;;1.65;;
81318;SDS011;70784;48.420;14.830;2023-07-30T03:12:11;2.35;;;1.40;;
81318;SDS011;70784;48.420;14.830;2023-07-30T03:14:57;2.03;;;1.35;;
81318;SDS011;70784;48.420;14.830;2023-07-30T03:17:43;2.67;;;1.77;;
81318;SDS011;70784;48.420;14.830;2023-07-30T03:20:31;2.38;;;1.27;;
81318;SDS011;70784;48.420;14.830;2023-07-30T03:23:20;3.03;;;1.90;;
81318;SDS011;70784;48.420;14.830;2023-07-30T03:26:06;2.13;;;1.33;;
81318;SDS011;70784;48.420;14.830;2023-07-30T03:28:55;4.03;;;2.38;;
81318;SDS011;70784;48.420;14.830;2023-07-30T03:31:43;3.67;;;2.20;;
81318;SDS011;70784;48.420;14.830;2023-07-30T03:34:29;3.83;;;1.73;;
81318;SDS011;70784;48.420;14.830;2023-07-30T03:37:15;3.97;;;1.95;;
81318;SDS011;70784;48.420;14.830;2023-07-30T03:40:01;3.58;;;1.92;;
81318;SDS011;70784;48.420;14.830;2023-07-30T03:42:47;2.75;;;1.70;;
81318;SDS011;70784;48.420;14.830;2023-07-30T03:45:32;6.38;;;2.40;;
81318;SDS011;70784;48.420;14.830;2023-07-30T03:48:19;4.30;;;2.20;;
81318;SDS011;70784;48.420;14.830;2023-07-30T03:51:04;3.15;;;2.13;;
81318;SDS011;70784;48.420;14.830;2023-07-30T03:53:52;4.03;;;2.03;;
81318;SDS011;70784;48.420;14.830;2023-07-30T03:56:38;4.18;;;2.00;;
81318;SDS011;70784;48.420;14.830;2023-07-30T03:59:27;3.90;;;2.40;;
81318;SDS011;70784;48.420;14.830;2023-07-30T04:02:13;2.65;;;1.88;;
81318;SDS011;70784;48.420;14.830;2023-07-30T04:05:00;2.83;;;2.20;;
81318;SDS011;70784;48.420;14.830;2023-07-30T04:07:46;3.90;;;1.80;;
81318;SDS011;70784;48.420;14.830;2023-07-30T04:10:32;3.58;;;2.13;;
81318;SDS011;70784;48.420;14.830;2023-07-30T04:13:17;3.45;;;2.10;;
81318;SDS011;70784;48.420;14.830;2023-07-30T04:16:03;6.57;;;1.98;;
81318;SDS011;70784;48.420;14.830;2023-07-30T04:18:49;4.85;;;2.00;;
81318;SDS011;70784;48.420;14.830;2023-07-30T04:21:35;3.55;;;2.08;;
81318;SDS011;70784;48.420;14.830;2023-07-30T04:24:21;4.18;;;1.88;;
81318;SDS011;70784;48.420;14.830;2023-07-30T04:27:07;2.83;;;1.50;;
81318;SDS011;70784;48.420;14.830;2023-07-30T04:29:52;11.45;;;1.98;;
81318;SDS011;70784;48.420;14.830;2023-07-30T04:32:38;2.13;;;1.65;;
81318;SDS011;70784;48.420;14.830;2023-07-30T04:35:24;5.82;;;2.55;;
81318;SDS011;70784;48.420;14.830;2023-07-30T04:38:10;3.95;;;1.65;;
81318;SDS011;70784;48.420;14.830;2023-07-30T04:40:57;2.65;;;1.60;;
81318;SDS011;70784;48.420;14.830;2023-07-30T04:43:43;3.00;;;1.92;;
81318;SDS011;70784;48.420;14.830;2023-07-30T04:46:32;2.47;;;1.52;;
81318;SDS011;70784;48.420;14.830;2023-07-30T04:49:18;2.38;;;1.88;;
81318;SDS011;70784;48.420;14.830;2023-07-30T04:52:04;2.97;;;1.88;;
81318;SDS011;70784;48.420;14.830;2023-07-30T04:54:50;2.35;;;1.90;;
81318;SDS011;70784;48.420;14.830;2023-07-30T04:57:35;4.03;;;2.00;;
81318;SDS011;70784;48.420;14.830;2023-07-30T05:00:21;2.28;;;1.65;;
81318;SDS011;70784;48.420;14.830;2023-07-30T05:03:07;2.65;;;1.80;;
81318;SDS011;70784;48.420;14.830;2023-07-30T05:05:56;4.30;;;1.77;;
81318;SDS011;70784;48.420;14.830;2023-07-30T05:08:42;2.60;;;1.70;;
81318;SDS011;70784;48.420;14.830;2023-07-30T05:11:27;2.10;;;1.60;;
81318;SDS011;70784;48.420;14.830;2023-07-30T05:14:13;1.45;;;0.90;;
81318;SDS011;70784;48.420;14.830;2023-07-30T05:16:59;2.05;;;1.05;;
81318;SDS011;70784;48.420;14.830;2023-07-30T11:33:47;2.05;;;0.80;;
81318;SDS011;70784;48.420;14.830;2023-07-30T11:36:32;1.73;;;0.50;;
81318;SDS011;70784;48.420;14.830;2023-07-30T11:39:17;4.88;;;0.80;;
81318;SDS011;70784;48.420;14.830;2023-07-30T11:42:02;3.80;;;0.65;;
81318;SDS011;70784;48.420;14.830;2023-07-30T11:44:47;6.35;;;0.90;;
81318;SDS011;70784;48.420;14.830;2023-07-30T11:47:31;2.38;;;0.70;;
81318;SDS011;70784;48.420;14.830;2023-07-30T11:50:16;2.15;;;0.80;;
81318;SDS011;70784;48.420;14.830;2023-07-30T11:53:00;3.50;;;0.73;;
81318;SDS011;70784;48.420;14.830;2023-07-30T11:55:45;3.42;;;0.77;;
81318;SDS011;70784;48.420;14.830;2023-07-30T11:58:30;1.50;;;0.80;;
81318;SDS011;70784;48.420;14.830;2023-07-30T12:01:15;3.17;;;1.10;;
81318;SDS011;70784;48.420;14.830;2023-07-30T12:04:01;3.88;;;0.68;;
81318;SDS011;70784;48.420;14.830;2023-07-30T12:09:34;1.30;;;0.80;;
81318;SDS011;70784;48.420;14.830;2023-07-30T12:12:19;1.02;;;0.60;;
81318;SDS011;70784;48.420;14.830;2023-07-30T12:15:12;1.58;;;1.05;;
81318;SDS011;70784;48.420;14.830;2023-07-30T12:17:57;2.72;;;0.90;;
81318;SDS011;70784;48.420;14.830;2023-07-30T12:20:43;6.50;;;1.13;;
81318;SDS011;70784;48.420;14.830;2023-07-30T12:23:27;1.65;;;0.75;;
81318;SDS011;70784;48.420;14.830;2023-07-30T12:26:11;3.25;;;0.77;;
81318;SDS011;70784;48.420;14.830;2023-07-30T12:28:56;3.83;;;0.82;;
81318;SDS011;70784;48.420;14.830;2023-07-30T12:31:40;1.75;;;0.80;;
81318;SDS011;70784;48.420;14.830;2023-07-30T12:34:24;2.13;;;0.82;;
81318;SDS011;70784;48.420;14.830;2023-07-30T12:37:09;2.05;;;0.70;;
81318;SDS011;70784;48.420;14.830;2023-07-30T12:39:53;2.88;;;0.88;;
81318;SDS011;70784;48.420;14.830;2023-07-30T12:42:38;1.58;;;1.20;;
81318;SDS011;70784;48.420;14.830;2023-07-30T12:45:22;2.22;;;0.98;;
81318;SDS011;70784;48.420;14.830;2023-07-30T12:48:07;1.75;;;0.70;;
81318;SDS011;70784;48.420;14.830;2023-07-30T12:50:52;1.42;;;0.60;;
81318;SDS011;70784;48.420;14.830;2023-07-30T12:53:36;1.13;;;0.65;;
81318;SDS011;70784;48.420;14.830;2023-07-30T12:56:21;3.15;;;0.60;;
81318;SDS011;70784;48.420;14.830;2023-07-30T12:59:05;0.82;;;0.40;;
81318;SDS011;70784;48.420;14.830;2023-07-30T13:01:50;1.88;;;0.85;;
81318;SDS011;70784;48.420;14.830;2023-07-30T13:04:34;0.98;;;0.60;;
81318;SDS011;70784;48.420;14.830;2023-07-30T13:07:18;1.10;;;0.73;;
81318;SDS011;70784;48.420;14.830;2023-07-30T13:12:52;1.83;;;0.70;;
81318;SDS011;70784;48.420;14.830;2023-07-30T13:15:36;1.08;;;0.70;;
81318;SDS011;70784;48.420;14.830;2023-07-30T13:18:21;1.05;;;0.65;;
81318;SDS011;70784;48.420;14.830;2023-07-30T13:21:06;1.17;;;0.47;;
81318;SDS011;70784;48.420;14.830;2023-07-30T13:23:50;1.30;;;0.63;;
81318;SDS011;70784;48.420;14.830;2023-07-30T13:26:35;0.88;;;0.40;;
81318;SDS011;70784;48.420;14.830;2023-07-30T13:29:20;1.67;;;0.60;;
81318;SDS011;70784;48.420;14.830;2023-07-30T13:32:04;1.10;;;0.80;;
81318;SDS011;70784;48.420;14.830;2023-07-30T13:34:49;1.23;;;0.50;;
81318;SDS011;70784;48.420;14.830;2023-07-30T13:37:33;1.70;;;0.80;;
81318;SDS011;70784;48.420;14.830;2023-07-30T13:40:18;2.95;;;0.57;;
81318;SDS011;70784;48.420;14.830;2023-07-30T13:43:02;1.23;;;0.60;;
81318;SDS011;70784;48.420;14.830;2023-07-30T13:45:47;1.05;;;0.70;;
81318;SDS011;70784;48.420;14.830;2023-07-30T13:48:34;2.33;;;0.93;;
81318;SDS011;70784;48.420;14.830;2023-07-30T13:51:18;2.25;;;0.55;;
81318;SDS011;70784;48.420;14.830;2023-07-30T13:54:03;1.17;;;0.70;;
81318;SDS011;70784;48.420;14.830;2023-07-30T13:56:49;1.80;;;0.52;;
81318;SDS011;70784;48.420;14.830;2023-07-30T13:59:33;1.25;;;0.75;;
81318;SDS011;70784;48.420;14.830;2023-07-30T14:02:18;1.40;;;0.50;;
81318;SDS011;70784;48.420;14.830;2023-07-30T14:05:03;2.85;;;0.90;;
81318;SDS011;70784;48.420;14.830;2023-07-30T14:07:47;0.70;;;0.50;;
81318;SDS011;70784;48.420;14.830;2023-07-30T14:10:34;0.80;;;0.52;;
81318;SDS011;70784;48.420;14.830;2023-07-30T14:13:18;1.00;;;0.52;;
81318;SDS011;70784;48.420;14.830;2023-07-30T14:16:03;1.00;;;0.50;;
81318;SDS011;70784;48.420;14.830;2023-07-30T14:18:47;1.40;;;0.63;;
81318;SDS011;70784;48.420;14.830;2023-07-30T14:21:32;1.33;;;0.70;;
81318;SDS011;70784;48.420;14.830;2023-07-30T14:24:16;1.10;;;0.60;;
81318;SDS011;70784;48.420;14.830;2023-07-30T14:27:01;1.10;;;0.60;;
81318;SDS011;70784;48.420;14.830;2023-07-30T14:29:45;1.00;;;0.50;;
81318;SDS011;70784;48.420;14.830;2023-07-30T14:32:29;1.13;;;0.80;;
81318;SDS011;70784;48.420;14.830;2023-07-30T14:35:14;1.20;;;0.70;;
81318;SDS011;70784;48.420;14.830;2023-07-30T14:37:58;1.10;;;0.52;;
81318;SDS011;70784;48.420;14.830;2023-07-30T14:40:43;1.90;;;1.00;;
81318;SDS011;70784;48.420;14.830;2023-07-30T14:43:28;0.90;;;0.70;;
81318;SDS011;70784;48.420;14.830;2023-07-30T14:46:12;1.50;;;0.63;;
81318;SDS011;70784;48.420;14.830;2023-07-30T14:48:58;1.00;;;0.47;;
81318;SDS011;70784;48.420;14.830;2023-07-30T14:51:43;1.17;;;0.68;;
81318;SDS011;70784;48.420;14.830;2023-07-30T14:54:27;0.80;;;0.50;;
81318;SDS011;70784;48.420;14.830;2023-07-30T14:57:12;1.10;;;0.75;;
81318;SDS011;70784;48.420;14.830;2023-07-30T14:59:56;1.08;;;0.80;;
81318;SDS011;70784;48.420;14.830;2023-07-30T15:02:41;0.80;;;0.40;;
81318;SDS011;70784;48.420;14.830;2023-07-30T15:05:25;0.95;;;0.50;;
81318;SDS011;70784;48.420;14.830;2023-07-30T15:08:10;2.67;;;0.70;;
81318;SDS011;70784;48.420;14.830;2023-07-30T15:10:54;1.27;;;0.82;;
81318;SDS011;70784;48.420;14.830;2023-07-30T15:13:38;0.98;;;0.50;;
81318;SDS011;70784;48.420;14.830;2023-07-30T15:16:23;1.00;;;0.55;;
81318;SDS011;70784;48.420;14.830;2023-07-30T15:19:08;1.63;;;0.95;;
81318;SDS011;70784;48.420;14.830;2023-07-30T15:21:52;1.40;;;0.47;;
81318;SDS011;70784;48.420;14.830;2023-07-30T15:24:37;1.13;;;0.60;;
81318;SDS011;70784;48.420;14.830;2023-07-30T15:27:21;1.83;;;0.90;;
81318;SDS011;70784;48.420;14.830;2023-07-30T15:30:06;1.27;;;0.65;;
81318;SDS011;70784;48.420;14.830;2023-07-30T15:32:50;2.47;;;1.25;;
81318;SDS011;70784;48.420;14.830;2023-07-30T15:35:35;1.13;;;0.55;;
81318;SDS011;70784;48.420;14.830;2023-07-30T15:38:20;1.17;;;0.60;;
81318;SDS011;70784;48.420;14.830;2023-07-30T15:41:04;1.00;;;0.60;;
81318;SDS011;70784;48.420;14.830;2023-07-30T15:43:49;1.25;;;0.65;;
81318;SDS011;70784;48.420;14.830;2023-07-30T15:46:35;0.93;;;0.60;;
81318;SDS011;70784;48.420;14.830;2023-07-30T15:49:19;1.17;;;0.60;;
81318;SDS011;70784;48.420;14.830;2023-07-30T15:52:04;1.30;;;0.50;;
81318;SDS011;70784;48.420;14.830;2023-07-30T15:54:48;1.38;;;0.80;;
81318;SDS011;70784;48.420;14.830;2023-07-30T15:57:33;0.95;;;0.50;;
81318;SDS011;70784;48.420;14.830;2023-07-30T16:00:17;1.52;;;0.88;;
81318;SDS011;70784;48.420;14.830;2023-07-30T16:03:03;1.10;;;0.90;;
81318;SDS011;70784;48.420;14.830;2023-07-30T16:05:50;1.77;;;0.93;;
81318;SDS011;70784;48.420;14.830;2023-07-30T16:08:34;0.95;;;0.52;;
81318;SDS011;70784;48.420;14.830;2023-07-30T16:11:20;1.20;;;0.50;;
81318;SDS011;70784;48.420;14.830;2023-07-30T16:14:04;1.08;;;0.52;;
81318;SDS011;70784;48.420;14.830;2023-07-30T16:16:49;2.10;;;0.60;;
81318;SDS011;70784;48.420;14.830;2023-07-30T16:19:35;1.77;;;0.82;;
81318;SDS011;70784;48.420;14.830;2023-07-30T16:22:20;1.20;;;0.70;;
81318;SDS011;70784;48.420;14.830;2023-07-30T16:25:04;0.90;;;0.50;;
81318;SDS011;70784;48.420;14.830;2023-07-30T16:27:50;0.95;;;0.63;;
81318;SDS011;70784;48.420;14.830;2023-07-30T16:30:34;1.20;;;0.50;;
81318;SDS011;70784;48.420;14.830;2023-07-30T16:33:19;1.27;;;0.90;;
81318;SDS011;70784;48.420;14.830;2023-07-30T16:36:04;1.33;;;0.57;;
81318;SDS011;70784;48.420;14.830;2023-07-30T16:38:50;1.08;;;0.40;;
81318;SDS011;70784;48.420;14.830;2023-07-30T16:41:35;1.88;;;0.55;;
81318;SDS011;70784;48.420;14.830;2023-07-30T16:44:19;1.30;;;0.52;;
81318;SDS011;70784;48.420;14.830;2023-07-30T16:47:04;1.52;;;0.68;;
81318;SDS011;70784;48.420;14.830;2023-07-30T16:49:49;1.25;;;0.40;;
81318;SDS011;70784;48.420;14.830;2023-07-30T16:52:34;2.65;;;0.68;;
81318;SDS011;70784;48.420;14.830;2023-07-30T16:55:18;4.25;;;0.70;;
81318;SDS011;70784;48.420;14.830;2023-07-30T16:58:03;1.30;;;0.55;;
81318;SDS011;70784;48.420;14.830;2023-07-30T17:00:47;1.15;;;0.60;;
81318;SDS011;70784;48.420;14.830;2023-07-30T17:03:33;3.05;;;0.85;;
81318;SDS011;70784;48.420;14.830;2023-07-30T17:06:20;3.50;;;0.80;;
81318;SDS011;70784;48.420;14.830;2023-07-30T17:09:05;4.07;;;0.55;;
81318;SDS011;70784;48.420;14.830;2023-07-30T17:11:49;4.80;;;0.68;;
81318;SDS011;70784;48.420;14.830;2023-07-30T17:14:34;2.50;;;0.70;;
81318;SDS011;70784;48.420;14.830;2023-07-30T17:17:18;1.77;;;0.70;;
81318;SDS011;70784;48.420;14.830;2023-07-30T17:20:03;2.58;;;0.77;;
81318;SDS011;70784;48.420;14.830;2023-07-30T17:22:48;1.05;;;0.65;;
81318;SDS011;70784;48.420;14.830;2023-07-30T17:25:32;2.50;;;0.65;;
81318;SDS011;70784;48.420;14.830;2023-07-30T17:28:17;1.60;;;0.70;;
81318;SDS011;70784;48.420;14.830;2023-07-30T17:31:01;1.95;;;0.57;;
81318;SDS011;70784;48.420;14.830;2023-07-30T17:33:46;1.20;;;0.52;;
81318;SDS011;70784;48.420;14.830;2023-07-30T17:36:30;0.95;;;0.55;;
81318;SDS011;70784;48.420;14.830;2023-07-30T17:39:16;1.38;;;0.70;;
81318;SDS011;70784;48.420;14.830;2023-07-30T17:42:02;0.70;;;0.50;;
81318;SDS011;70784;48.420;14.830;2023-07-30T17:44:50;2.17;;;0.70;;
81318;SDS011;70784;48.420;14.830;2023-07-30T17:47:38;0.80;;;0.57;;
81318;SDS011;70784;48.420;14.830;2023-07-30T17:50:23;1.95;;;0.80;;
81318;SDS011;70784;48.420;14.830;2023-07-30T17:53:08;0.98;;;0.60;;
81318;SDS011;70784;48.420;14.830;2023-07-30T17:55:52;1.50;;;0.60;;
81318;SDS011;70784;48.420;14.830;2023-07-30T17:58:37;0.80;;;0.43;;
81318;SDS011;70784;48.420;14.830;2023-07-30T18:01:21;0.70;;;0.40;;
81318;SDS011;70784;48.420;14.830;2023-07-30T18:04:05;2.20;;;0.60;;
81318;SDS011;70784;48.420;14.830;2023-07-30T18:06:50;1.27;;;0.60;;
81318;SDS011;70784;48.420;14.830;2023-07-30T18:09:35;0.80;;;0.35;;
81318;SDS011;70784;48.420;14.830;2023-07-30T18:12:20;1.38;;;0.60;;
81318;SDS011;70784;48.420;14.830;2023-07-30T18:15:05;1.25;;;0.50;;
81318;SDS011;70784;48.420;14.830;2023-07-30T18:17:51;0.90;;;0.63;;
81318;SDS011;70784;48.420;14.830;2023-07-30T18:20:35;1.15;;;0.68;;
81318;SDS011;70784;48.420;14.830;2023-07-30T18:23:20;0.98;;;0.43;;
81318;SDS011;70784;48.420;14.830;2023-07-30T18:26:04;1.63;;;0.60;;
81318;SDS011;70784;48.420;14.830;2023-07-30T18:28:49;0.63;;;0.47;;
81318;SDS011;70784;48.420;14.830;2023-07-30T18:31:34;1.05;;;0.65;;
81318;SDS011;70784;48.420;14.830;2023-07-30T18:34:18;1.08;;;0.60;;
81318;SDS011;70784;48.420;14.830;2023-07-30T18:37:03;1.42;;;0.60;;
81318;SDS011;70784;48.420;14.830;2023-07-30T18:39:49;1.20;;;0.90;;
81318;SDS011;70784;48.420;14.830;2023-07-30T18:42:35;2.58;;;0.70;;
81318;SDS011;70784;48.420;14.830;2023-07-30T18:45:20;1.30;;;0.50;;
81318;SDS011;70784;48.420;14.830;2023-07-30T18:48:05;1.42;;;0.60;;
81318;SDS011;70784;48.420;14.830;2023-07-30T18:50:50;2.47;;;0.57;;
81318;SDS011;70784;48.420;14.830;2023-07-30T18:53:34;2.05;;;1.00;;
81318;SDS011;70784;48.420;14.830;2023-07-30T18:56:19;2.20;;;0.93;;
81318;SDS011;70784;48.420;14.830;2023-07-30T18:59:03;1.73;;;0.43;;
81318;SDS011;70784;48.420;14.830;2023-07-30T19:01:48;1.20;;;0.70;;
81318;SDS011;70784;48.420;14.830;2023-07-30T19:04:32;2.08;;;0.55;;
81318;SDS011;70784;48.420;14.830;2023-07-30T19:07:17;1.35;;;0.80;;
81318;SDS011;70784;48.420;14.830;2023-07-30T19:10:01;1.15;;;0.55;;
81318;SDS011;70784;48.420;14.830;2023-07-30T19:12:46;1.63;;;0.75;;
81318;SDS011;70784;48.420;14.830;2023-07-30T19:15:31;1.08;;;0.50;;
81318;SDS011;70784;48.420;14.830;2023-07-30T19:18:15;1.00;;;0.60;;
81318;SDS011;70784;48.420;14.830;2023-07-30T19:21:00;0.90;;;0.70;;
81318;SDS011;70784;48.420;14.830;2023-07-30T19:23:47;2.47;;;0.65;;
81318;SDS011;70784;48.420;14.830;2023-07-30T19:26:33;0.90;;;0.43;;
81318;SDS011;70784;48.420;14.830;2023-07-30T19:29:17;1.70;;;0.80;;
81318;SDS011;70784;48.420;14.830;2023-07-30T19:32:02;1.20;;;0.70;;
81318;SDS011;70784;48.420;14.830;2023-07-30T19:34:46;1.35;;;0.52;;
81318;SDS011;70784;48.420;14.830;2023-07-30T19:37:31;1.35;;;0.68;;
81318;SDS011;70784;48.420;14.830;2023-07-30T19:40:15;1.83;;;0.63;;
81318;SDS011;70784;48.420;14.830;2023-07-30T19:43:00;1.48;;;0.70;;
81318;SDS011;70784;48.420;14.830;2023-07-30T19:45:44;1.35;;;0.43;;
81318;SDS011;70784;48.420;14.830;2023-07-30T19:48:29;1.90;;;0.70;;
81318;SDS011;70784;48.420;14.830;2023-07-30T19:51:15;0.82;;;0.55;;
81318;SDS011;70784;48.420;14.830;2023-07-30T19:54:00;2.10;;;0.60;;
81318;SDS011;70784;48.420;14.830;2023-07-30T19:56:45;2.67;;;0.70;;
81318;SDS011;70784;48.420;14.830;2023-07-30T19:59:29;2.20;;;0.60;;
81318;SDS011;70784;48.420;14.830;2023-07-30T20:02:14;1.73;;;0.55;;
81318;SDS011;70784;48.420;14.830;2023-07-30T20:04:58;3.63;;;0.63;;
81318;SDS011;70784;48.420;14.830;2023-07-30T20:07:43;2.13;;;0.70;;
81318;SDS011;70784;48.420;14.830;2023-07-30T20:10:31;1.20;;;0.52;;
81318;SDS011;70784;48.420;14.830;2023-07-30T20:13:16;1.52;;;0.75;;
81318;SDS011;70784;48.420;14.830;2023-07-30T20:16:00;1.15;;;0.60;;
81318;SDS011;70784;48.420;14.830;2023-07-30T20:18:45;0.80;;;0.65;;
81318;SDS011;70784;48.420;14.830;2023-07-30T20:21:29;1.33;;;0.45;;
81318;SDS011;70784;48.420;14.830;2023-07-30T20:24:14;0.85;;;0.50;;
81318;SDS011;70784;48.420;14.830;2023-07-30T20:26:59;0.70;;;0.40;;
81318;SDS011;70784;48.420;14.830;2023-07-30T20:29:44;1.45;;;0.50;;
81318;SDS011;70784;48.420;14.830;2023-07-30T20:32:29;1.23;;;0.93;;
81318;SDS011;70784;48.420;14.830;2023-07-30T20:35:13;1.60;;;0.77;;
81318;SDS011;70784;48.420;14.830;2023-07-30T20:37:58;2.22;;;0.57;;
81318;SDS011;70784;48.420;14.830;2023-07-30T20:40:43;1.15;;;0.63;;
81318;SDS011;70784;48.420;14.830;2023-07-30T20:43:27;1.83;;;0.50;;
81318;SDS011;70784;48.420;14.830;2023-07-30T20:46:12;1.10;;;0.60;;
81318;SDS011;70784;48.420;14.830;2023-07-30T20:48:57;1.65;;;0.60;;
81318;SDS011;70784;48.420;14.830;2023-07-30T20:51:42;1.08;;;0.50;;
81318;SDS011;70784;48.420;14.830;2023-07-30T20:54:26;1.98;;;0.68;;
81318;SDS011;70784;48.420;14.830;2023-07-30T20:57:10;1.88;;;0.77;;
81318;SDS011;70784;48.420;14.830;2023-07-30T20:59:55;2.03;;;0.80;;
81318;SDS011;70784;48.420;14.830;2023-07-30T21:02:39;1.48;;;0.50;;
81318;SDS011;70784;48.420;14.830;2023-07-30T21:05:24;1.40;;;0.55;;
81318;SDS011;70784;48.420;14.830;2023-07-30T21:08:08;1.08;;;0.80;;
81318;SDS011;70784;48.420;14.830;2023-07-30T21:10:53;1.90;;;0.70;;
81318;SDS011;70784;48.420;14.830;2023-07-30T21:13:37;1.85;;;0.57;;
81318;SDS011;70784;48.420;14.830;2023-07-30T21:16:22;1.40;;;0.80;;
81318;SDS011;70784;48.420;14.830;2023-07-30T21:19:06;1.33;;;0.57;;
81318;SDS011;70784;48.420;14.830;2023-07-30T21:21:51;2.15;;;0.68;;
81318;SDS011;70784;48.420;14.830;2023-07-30T21:24:35;0.88;;;0.50;;
81318;SDS011;70784;48.420;14.830;2023-07-30T21:27:21;1.17;;;0.70;;
81318;SDS011;70784;48.420;14.830;2023-07-30T21:30:05;3.10;;;0.88;;
81318;SDS011;70784;48.420;14.830;2023-07-30T21:32:51;1.42;;;0.30;;
81318;SDS011;70784;48.420;14.830;2023-07-30T21:35:35;1.40;;;0.82;;
81318;SDS011;70784;48.420;14.830;2023-07-30T21:38:20;1.65;;;0.40;;
81318;SDS011;70784;48.420;14.830;2023-07-30T21:41:04;1.00;;;0.85;;
81318;SDS011;70784;48.420;14.830;2023-07-30T21:43:49;1.10;;;0.75;;
81318;SDS011;70784;48.420;14.830;2023-07-30T21:46:33;1.90;;;1.42;;
81318;SDS011;70784;48.420;14.830;2023-07-30T21:49:17;2.42;;;0.85;;
81318;SDS011;70784;48.420;14.830;2023-07-30T21:52:02;0.95;;;0.50;;
81318;SDS011;70784;48.420;14.830;2023-07-30T21:55:07;1.20;;;0.55;;
81318;SDS011;70784;48.420;14.830;2023-07-30T21:57:52;1.08;;;0.60;;
81318;SDS011;70784;48.420;14.830;2023-07-30T22:00:36;1.15;;;0.77;;
81318;SDS011;70784;48.420;14.830;2023-07-30T22:03:21;1.75;;;0.73;;
81318;SDS011;70784;48.420;14.830;2023-07-30T22:06:05;0.93;;;0.45;;
81318;SDS011;70784;48.420;14.830;2023-07-30T22:08:49;1.52;;;1.20;;
81318;SDS011;70784;48.420;14.830;2023-07-30T22:11:34;1.20;;;0.50;;
81318;SDS011;70784;48.420;14.830;2023-07-30T22:14:18;1.52;;;0.70;;
81318;SDS011;70784;48.420;14.830;2023-07-30T22:17:03;0.98;;;0.60;;
81318;SDS011;70784;48.420;14.830;2023-07-30T22:19:48;1.00;;;0.52;;
81318;SDS011;70784;48.420;14.830;2023-07-30T22:22:32;1.25;;;0.73;;
81318;SDS011;70784;48.420;14.830;2023-07-30T22:25:16;2.15;;;0.85;;
81318;SDS011;70784;48.420;14.830;2023-07-30T22:28:01;0.93;;;0.55;;
81318;SDS011;70784;48.420;14.830;2023-07-30T22:30:45;1.33;;;0.63;;
81318;SDS011;70784;48.420;14.830;2023-07-30T22:33:30;1.70;;;0.90;;
81318;SDS011;70784;48.420;14.830;2023-07-30T22:36:14;2.40;;;1.27;;
81318;SDS011;70784;48.420;14.830;2023-07-30T22:38:58;3.55;;;0.93;;
81318;SDS011;70784;48.420;14.830;2023-07-30T22:41:43;1.67;;;0.63;;
81318;SDS011;70784;48.420;14.830;2023-07-30T22:44:27;1.27;;;0.70;;
81318;SDS011;70784;48.420;14.830;2023-07-30T22:47:12;2.28;;;0.68;;
81318;SDS011;70784;48.420;14.830;2023-07-30T22:49:56;2.22;;;0.80;;
81318;SDS011;70784;48.420;14.830;2023-07-30T22:52:41;0.98;;;0.68;;